sensor_id;sensor_type;location;lat;lon;timestamp;P1;durP1;ratioP1;P2;durP2;ratioP2
57551;SDS011;43379;48.160;14.036;2023-04-03T00:01:15;4.73;;;4.33;;
57551;SDS011;43379;48.160;14.036;2023-04-03T00:03:41;5.20;;;4.80;;
57551;SDS011;43379;48.160;14.036;2023-04-03T00:06:07;5.03;;;4.63;;
57551;SDS011;43379;48.160;14.036;2023-04-03T00:08:35;5.10;;;4.70;;
57551;SDS011;43379;48.160;14.036;2023-04-03T00:11:02;4.67;;;4.30;;
57551;SDS011;43379;48.160;14.036;2023-04-03T00:13:28;5.23;;;4.83;;
57551;SDS011;43379;48.160;14.036;2023-04-03T00:15:55;5.40;;;5.00;;
57551;SDS011;43379;48.160;14.036;2023-04-03T00:18:21;5.37;;;4.97;;
57551;SDS011;43379;48.160;14.036;2023-04-03T00:20:47;5.10;;;4.77;;
57551;SDS011;43379;48.160;14.036;2023-04-03T00:23:13;4.70;;;4.30;;
57551;SDS011;43379;48.160;14.036;2023-04-03T00:25:39;4.83;;;4.53;;
57551;SDS011;43379;48.160;14.036;2023-04-03T00:28:05;5.30;;;4.90;;
57551;SDS011;43379;48.160;14.036;2023-04-03T00:30:31;4.97;;;4.57;;
57551;SDS011;43379;48.160;14.036;2023-04-03T00:32:57;4.90;;;4.40;;
57551;SDS011;43379;48.160;14.036;2023-04-03T00:35:23;4.30;;;4.00;;
57551;SDS011;43379;48.160;14.036;2023-04-03T00:37:52;6.37;;;5.83;;
57551;SDS011;43379;48.160;14.036;2023-04-03T00:40:20;5.20;;;4.70;;
57551;SDS011;43379;48.160;14.036;2023-04-03T00:42:48;5.03;;;4.53;;
57551;SDS011;43379;48.160;14.036;2023-04-03T00:47:54;4.90;;;4.50;;
57551;SDS011;43379;48.160;14.036;2023-04-03T00:50:21;4.53;;;4.20;;
57551;SDS011;43379;48.160;14.036;2023-04-03T00:52:47;5.10;;;4.60;;
57551;SDS011;43379;48.160;14.036;2023-04-03T00:55:14;4.80;;;4.50;;
57551;SDS011;43379;48.160;14.036;2023-04-03T00:57:41;4.53;;;4.20;;
57551;SDS011;43379;48.160;14.036;2023-04-03T01:00:09;4.30;;;4.00;;
57551;SDS011;43379;48.160;14.036;2023-04-03T01:02:37;4.30;;;4.00;;
57551;SDS011;43379;48.160;14.036;2023-04-03T01:05:05;4.30;;;3.90;;
57551;SDS011;43379;48.160;14.036;2023-04-03T01:07:31;4.20;;;3.90;;
57551;SDS011;43379;48.160;14.036;2023-04-03T01:10:00;4.80;;;4.50;;
57551;SDS011;43379;48.160;14.036;2023-04-03T01:14:56;5.27;;;4.87;;
57551;SDS011;43379;48.160;14.036;2023-04-03T01:17:32;4.67;;;4.27;;
57551;SDS011;43379;48.160;14.036;2023-04-03T01:22:45;5.33;;;4.93;;
57551;SDS011;43379;48.160;14.036;2023-04-03T01:25:33;4.67;;;4.10;;
57551;SDS011;43379;48.160;14.036;2023-04-03T01:28:02;5.27;;;4.77;;
57551;SDS011;43379;48.160;14.036;2023-04-03T01:33:18;4.60;;;4.30;;
57551;SDS011;43379;48.160;14.036;2023-04-03T01:35:44;5.50;;;5.10;;
57551;SDS011;43379;48.160;14.036;2023-04-03T01:38:10;4.97;;;4.57;;
57551;SDS011;43379;48.160;14.036;2023-04-03T01:40:35;4.73;;;4.43;;
57551;SDS011;43379;48.160;14.036;2023-04-03T01:43:01;4.33;;;4.03;;
57551;SDS011;43379;48.160;14.036;2023-04-03T01:45:27;4.53;;;4.23;;
57551;SDS011;43379;48.160;14.036;2023-04-03T01:47:52;5.10;;;4.70;;
57551;SDS011;43379;48.160;14.036;2023-04-03T01:50:18;4.70;;;4.37;;
57551;SDS011;43379;48.160;14.036;2023-04-03T01:52:43;5.10;;;4.70;;
57551;SDS011;43379;48.160;14.036;2023-04-03T01:55:09;4.97;;;4.57;;
57551;SDS011;43379;48.160;14.036;2023-04-03T01:57:35;4.50;;;4.20;;
57551;SDS011;43379;48.160;14.036;2023-04-03T02:00:00;4.70;;;4.30;;
57551;SDS011;43379;48.160;14.036;2023-04-03T02:02:26;5.27;;;4.77;;
57551;SDS011;43379;48.160;14.036;2023-04-03T02:04:52;4.57;;;4.27;;
57551;SDS011;43379;48.160;14.036;2023-04-03T02:07:17;4.83;;;4.53;;
57551;SDS011;43379;48.160;14.036;2023-04-03T02:09:43;4.60;;;4.20;;
57551;SDS011;43379;48.160;14.036;2023-04-03T02:12:08;4.03;;;3.73;;
57551;SDS011;43379;48.160;14.036;2023-04-03T02:14:34;4.37;;;4.07;;
57551;SDS011;43379;48.160;14.036;2023-04-03T02:17:00;4.33;;;3.93;;
57551;SDS011;43379;48.160;14.036;2023-04-03T02:19:30;4.77;;;4.37;;
57551;SDS011;43379;48.160;14.036;2023-04-03T02:21:56;4.23;;;3.93;;
57551;SDS011;43379;48.160;14.036;2023-04-03T02:24:22;4.40;;;4.10;;
57551;SDS011;43379;48.160;14.036;2023-04-03T02:26:47;3.80;;;3.50;;
57551;SDS011;43379;48.160;14.036;2023-04-03T02:29:13;4.90;;;4.50;;
57551;SDS011;43379;48.160;14.036;2023-04-03T02:31:39;4.77;;;4.37;;
57551;SDS011;43379;48.160;14.036;2023-04-03T02:34:05;4.10;;;3.80;;
57551;SDS011;43379;48.160;14.036;2023-04-03T02:36:30;4.10;;;3.80;;
57551;SDS011;43379;48.160;14.036;2023-04-03T02:38:56;4.20;;;3.73;;
57551;SDS011;43379;48.160;14.036;2023-04-03T02:41:22;3.80;;;3.50;;
57551;SDS011;43379;48.160;14.036;2023-04-03T02:43:48;5.13;;;4.80;;
57551;SDS011;43379;48.160;14.036;2023-04-03T02:46:13;4.40;;;4.10;;
57551;SDS011;43379;48.160;14.036;2023-04-03T02:48:40;3.73;;;3.43;;
57551;SDS011;43379;48.160;14.036;2023-04-03T02:51:06;4.87;;;3.93;;
57551;SDS011;43379;48.160;14.036;2023-04-03T02:53:31;4.00;;;3.73;;
57551;SDS011;43379;48.160;14.036;2023-04-03T02:55:57;3.60;;;3.40;;
57551;SDS011;43379;48.160;14.036;2023-04-03T02:58:23;3.90;;;3.60;;
57551;SDS011;43379;48.160;14.036;2023-04-03T03:00:48;4.30;;;4.00;;
57551;SDS011;43379;48.160;14.036;2023-04-03T03:03:14;4.40;;;4.00;;
57551;SDS011;43379;48.160;14.036;2023-04-03T03:05:40;4.63;;;4.23;;
57551;SDS011;43379;48.160;14.036;2023-04-03T03:08:05;3.57;;;3.30;;
57551;SDS011;43379;48.160;14.036;2023-04-03T03:10:31;3.87;;;3.57;;
57551;SDS011;43379;48.160;14.036;2023-04-03T03:12:56;4.10;;;3.87;;
57551;SDS011;43379;48.160;14.036;2023-04-03T03:15:22;4.30;;;3.90;;
57551;SDS011;43379;48.160;14.036;2023-04-03T03:17:48;4.43;;;4.03;;
57551;SDS011;43379;48.160;14.036;2023-04-03T03:20:13;4.27;;;3.97;;
57551;SDS011;43379;48.160;14.036;2023-04-03T03:22:40;4.07;;;3.77;;
57551;SDS011;43379;48.160;14.036;2023-04-03T03:25:06;4.27;;;3.97;;
57551;SDS011;43379;48.160;14.036;2023-04-03T03:27:32;5.00;;;4.13;;
57551;SDS011;43379;48.160;14.036;2023-04-03T03:29:57;3.57;;;3.27;;
57551;SDS011;43379;48.160;14.036;2023-04-03T03:32:23;4.43;;;4.03;;
57551;SDS011;43379;48.160;14.036;2023-04-03T03:34:49;3.80;;;3.50;;
57551;SDS011;43379;48.160;14.036;2023-04-03T03:37:14;3.87;;;3.57;;
57551;SDS011;43379;48.160;14.036;2023-04-03T03:39:40;4.70;;;3.93;;
57551;SDS011;43379;48.160;14.036;2023-04-03T03:42:06;4.23;;;3.83;;
57551;SDS011;43379;48.160;14.036;2023-04-03T03:44:31;5.20;;;3.97;;
57551;SDS011;43379;48.160;14.036;2023-04-03T03:46:57;4.70;;;4.20;;
57551;SDS011;43379;48.160;14.036;2023-04-03T03:49:22;4.63;;;4.23;;
57551;SDS011;43379;48.160;14.036;2023-04-03T03:51:48;4.80;;;3.80;;
57551;SDS011;43379;48.160;14.036;2023-04-03T03:54:14;4.23;;;3.93;;
57551;SDS011;43379;48.160;14.036;2023-04-03T03:56:40;4.83;;;4.43;;
57551;SDS011;43379;48.160;14.036;2023-04-03T03:59:06;4.83;;;3.60;;
57551;SDS011;43379;48.160;14.036;2023-04-03T04:01:31;5.13;;;4.20;;
57551;SDS011;43379;48.160;14.036;2023-04-03T04:03:57;4.50;;;4.10;;
57551;SDS011;43379;48.160;14.036;2023-04-03T04:06:23;4.03;;;3.73;;
57551;SDS011;43379;48.160;14.036;2023-04-03T04:08:49;4.73;;;4.43;;
57551;SDS011;43379;48.160;14.036;2023-04-03T04:11:15;5.40;;;4.60;;
57551;SDS011;43379;48.160;14.036;2023-04-03T04:13:40;5.00;;;4.60;;
57551;SDS011;43379;48.160;14.036;2023-04-03T04:16:06;4.83;;;4.40;;
57551;SDS011;43379;48.160;14.036;2023-04-03T04:18:32;4.43;;;4.10;;
57551;SDS011;43379;48.160;14.036;2023-04-03T04:20:58;4.33;;;3.93;;
57551;SDS011;43379;48.160;14.036;2023-04-03T04:23:23;5.53;;;5.10;;
57551;SDS011;43379;48.160;14.036;2023-04-03T04:25:49;5.10;;;4.70;;
57551;SDS011;43379;48.160;14.036;2023-04-03T04:28:16;4.03;;;3.73;;
57551;SDS011;43379;48.160;14.036;2023-04-03T04:30:42;6.93;;;4.57;;
57551;SDS011;43379;48.160;14.036;2023-04-03T04:33:07;4.60;;;4.20;;
57551;SDS011;43379;48.160;14.036;2023-04-03T04:35:33;4.53;;;4.13;;
57551;SDS011;43379;48.160;14.036;2023-04-03T04:37:59;4.73;;;4.30;;
57551;SDS011;43379;48.160;14.036;2023-04-03T04:40:25;4.87;;;4.27;;
57551;SDS011;43379;48.160;14.036;2023-04-03T04:42:51;5.20;;;4.80;;
57551;SDS011;43379;48.160;14.036;2023-04-03T04:45:17;7.93;;;4.67;;
57551;SDS011;43379;48.160;14.036;2023-04-03T04:47:43;5.40;;;4.23;;
57551;SDS011;43379;48.160;14.036;2023-04-03T04:50:09;4.53;;;4.13;;
57551;SDS011;43379;48.160;14.036;2023-04-03T04:52:35;4.97;;;4.27;;
57551;SDS011;43379;48.160;14.036;2023-04-03T04:55:01;4.40;;;4.10;;
57551;SDS011;43379;48.160;14.036;2023-04-03T04:57:26;4.70;;;4.40;;
57551;SDS011;43379;48.160;14.036;2023-04-03T04:59:52;5.17;;;4.77;;
57551;SDS011;43379;48.160;14.036;2023-04-03T05:02:18;4.80;;;4.40;;
57551;SDS011;43379;48.160;14.036;2023-04-03T05:04:43;5.10;;;4.70;;
57551;SDS011;43379;48.160;14.036;2023-04-03T05:07:09;4.90;;;4.50;;
57551;SDS011;43379;48.160;14.036;2023-04-03T05:09:35;5.17;;;4.77;;
57551;SDS011;43379;48.160;14.036;2023-04-03T05:12:01;5.00;;;4.67;;
57551;SDS011;43379;48.160;14.036;2023-04-03T05:14:28;6.00;;;5.43;;
57551;SDS011;43379;48.160;14.036;2023-04-03T05:16:53;4.77;;;4.43;;
57551;SDS011;43379;48.160;14.036;2023-04-03T05:19:22;5.53;;;4.90;;
57551;SDS011;43379;48.160;14.036;2023-04-03T05:21:48;5.27;;;4.87;;
57551;SDS011;43379;48.160;14.036;2023-04-03T05:24:14;4.70;;;4.30;;
57551;SDS011;43379;48.160;14.036;2023-04-03T05:26:41;5.60;;;5.10;;
57551;SDS011;43379;48.160;14.036;2023-04-03T05:29:07;6.17;;;5.63;;
57551;SDS011;43379;48.160;14.036;2023-04-03T05:31:33;6.10;;;5.67;;
57551;SDS011;43379;48.160;14.036;2023-04-03T05:33:59;6.30;;;5.70;;
57551;SDS011;43379;48.160;14.036;2023-04-03T05:36:25;6.00;;;5.50;;
57551;SDS011;43379;48.160;14.036;2023-04-03T05:38:51;6.40;;;5.60;;
57551;SDS011;43379;48.160;14.036;2023-04-03T05:41:17;6.60;;;6.17;;
57551;SDS011;43379;48.160;14.036;2023-04-03T05:43:43;7.40;;;6.80;;
57551;SDS011;43379;48.160;14.036;2023-04-03T05:46:10;7.90;;;6.40;;
57551;SDS011;43379;48.160;14.036;2023-04-03T05:48:37;7.10;;;6.60;;
57551;SDS011;43379;48.160;14.036;2023-04-03T05:51:03;6.87;;;6.27;;
57551;SDS011;43379;48.160;14.036;2023-04-03T05:53:30;6.10;;;5.60;;
57551;SDS011;43379;48.160;14.036;2023-04-03T05:55:58;6.27;;;5.77;;
57551;SDS011;43379;48.160;14.036;2023-04-03T05:58:23;6.50;;;5.93;;
57551;SDS011;43379;48.160;14.036;2023-04-03T06:00:49;5.90;;;5.50;;
57551;SDS011;43379;48.160;14.036;2023-04-03T06:03:15;7.23;;;4.57;;
57551;SDS011;43379;48.160;14.036;2023-04-03T06:05:41;5.77;;;5.20;;
57551;SDS011;43379;48.160;14.036;2023-04-03T06:08:07;5.67;;;5.17;;
57551;SDS011;43379;48.160;14.036;2023-04-03T06:10:34;5.20;;;4.80;;
57551;SDS011;43379;48.160;14.036;2023-04-03T06:13:00;5.27;;;4.77;;
57551;SDS011;43379;48.160;14.036;2023-04-03T06:15:26;7.70;;;5.90;;
57551;SDS011;43379;48.160;14.036;2023-04-03T06:17:53;6.67;;;5.93;;
57551;SDS011;43379;48.160;14.036;2023-04-03T06:20:18;6.30;;;5.80;;
57551;SDS011;43379;48.160;14.036;2023-04-03T06:22:44;5.57;;;5.07;;
57551;SDS011;43379;48.160;14.036;2023-04-03T06:25:11;6.20;;;5.60;;
57551;SDS011;43379;48.160;14.036;2023-04-03T06:27:37;5.83;;;4.80;;
57551;SDS011;43379;48.160;14.036;2023-04-03T06:30:03;6.13;;;5.40;;
57551;SDS011;43379;48.160;14.036;2023-04-03T06:32:30;5.67;;;5.10;;
57551;SDS011;43379;48.160;14.036;2023-04-03T06:34:56;5.50;;;5.10;;
57551;SDS011;43379;48.160;14.036;2023-04-03T06:37:23;5.53;;;5.03;;
57551;SDS011;43379;48.160;14.036;2023-04-03T06:39:51;5.20;;;4.80;;
57551;SDS011;43379;48.160;14.036;2023-04-03T06:42:17;5.73;;;5.23;;
57551;SDS011;43379;48.160;14.036;2023-04-03T06:44:43;5.43;;;4.63;;
57551;SDS011;43379;48.160;14.036;2023-04-03T06:47:15;7.23;;;6.57;;
57551;SDS011;43379;48.160;14.036;2023-04-03T06:49:42;6.33;;;5.73;;
57551;SDS011;43379;48.160;14.036;2023-04-03T06:52:07;6.80;;;6.20;;
57551;SDS011;43379;48.160;14.036;2023-04-03T06:54:34;5.90;;;4.90;;
57551;SDS011;43379;48.160;14.036;2023-04-03T06:57:00;5.30;;;4.80;;
57551;SDS011;43379;48.160;14.036;2023-04-03T06:59:26;5.53;;;5.13;;
57551;SDS011;43379;48.160;14.036;2023-04-03T07:01:52;6.47;;;5.97;;
57551;SDS011;43379;48.160;14.036;2023-04-03T07:04:17;6.20;;;5.60;;
57551;SDS011;43379;48.160;14.036;2023-04-03T07:06:45;7.73;;;7.03;;
57551;SDS011;43379;48.160;14.036;2023-04-03T07:09:11;6.77;;;6.17;;
57551;SDS011;43379;48.160;14.036;2023-04-03T07:11:38;6.00;;;5.47;;
57551;SDS011;43379;48.160;14.036;2023-04-03T07:14:04;5.53;;;5.03;;
57551;SDS011;43379;48.160;14.036;2023-04-03T07:16:31;5.97;;;5.20;;
57551;SDS011;43379;48.160;14.036;2023-04-03T07:18:57;5.70;;;5.20;;
57551;SDS011;43379;48.160;14.036;2023-04-03T07:21:22;5.97;;;4.60;;
57551;SDS011;43379;48.160;14.036;2023-04-03T07:23:48;5.27;;;4.87;;
57551;SDS011;43379;48.160;14.036;2023-04-03T07:26:14;6.97;;;4.80;;
57551;SDS011;43379;48.160;14.036;2023-04-03T07:28:40;4.80;;;4.40;;
57551;SDS011;43379;48.160;14.036;2023-04-03T07:31:07;4.60;;;4.13;;
57551;SDS011;43379;48.160;14.036;2023-04-03T07:33:38;4.60;;;4.20;;
57551;SDS011;43379;48.160;14.036;2023-04-03T07:36:05;4.30;;;4.00;;
57551;SDS011;43379;48.160;14.036;2023-04-03T07:38:32;3.60;;;3.23;;
57551;SDS011;43379;48.160;14.036;2023-04-03T07:40:58;7.10;;;4.97;;
57551;SDS011;43379;48.160;14.036;2023-04-03T07:43:23;6.90;;;4.60;;
57551;SDS011;43379;48.160;14.036;2023-04-03T07:45:50;5.23;;;4.40;;
57551;SDS011;43379;48.160;14.036;2023-04-03T07:48:23;8.83;;;5.40;;
57551;SDS011;43379;48.160;14.036;2023-04-03T07:50:51;12.90;;;7.63;;
57551;SDS011;43379;48.160;14.036;2023-04-03T07:53:17;6.77;;;5.23;;
57551;SDS011;43379;48.160;14.036;2023-04-03T07:55:45;5.73;;;5.23;;
57551;SDS011;43379;48.160;14.036;2023-04-03T07:58:13;4.97;;;4.47;;
57551;SDS011;43379;48.160;14.036;2023-04-03T08:00:43;4.67;;;4.27;;
57551;SDS011;43379;48.160;14.036;2023-04-03T08:03:09;4.17;;;3.80;;
57551;SDS011;43379;48.160;14.036;2023-04-03T08:05:37;6.03;;;5.27;;
57551;SDS011;43379;48.160;14.036;2023-04-03T08:08:04;4.20;;;3.80;;
57551;SDS011;43379;48.160;14.036;2023-04-03T08:10:31;8.70;;;4.87;;
57551;SDS011;43379;48.160;14.036;2023-04-03T08:12:57;4.40;;;4.10;;
57551;SDS011;43379;48.160;14.036;2023-04-03T08:15:22;4.87;;;4.37;;
57551;SDS011;43379;48.160;14.036;2023-04-03T08:17:48;4.13;;;3.83;;
57551;SDS011;43379;48.160;14.036;2023-04-03T08:20:14;4.40;;;4.00;;
57551;SDS011;43379;48.160;14.036;2023-04-03T08:22:40;5.23;;;4.80;;
57551;SDS011;43379;48.160;14.036;2023-04-03T08:25:05;5.97;;;4.77;;
57551;SDS011;43379;48.160;14.036;2023-04-03T08:27:31;4.90;;;4.50;;
57551;SDS011;43379;48.160;14.036;2023-04-03T08:29:57;6.33;;;5.20;;
57551;SDS011;43379;48.160;14.036;2023-04-03T08:32:23;5.43;;;5.03;;
57551;SDS011;43379;48.160;14.036;2023-04-03T08:34:49;4.80;;;4.40;;
57551;SDS011;43379;48.160;14.036;2023-04-03T08:37:14;5.23;;;4.80;;
57551;SDS011;43379;48.160;14.036;2023-04-03T08:39:41;5.50;;;5.03;;
57551;SDS011;43379;48.160;14.036;2023-04-03T08:45:12;6.40;;;5.80;;
57551;SDS011;43379;48.160;14.036;2023-04-03T08:47:53;7.43;;;6.73;;
57551;SDS011;43379;48.160;14.036;2023-04-03T08:50:30;4.93;;;4.60;;
57551;SDS011;43379;48.160;14.036;2023-04-03T08:53:00;5.27;;;4.87;;
57551;SDS011;43379;48.160;14.036;2023-04-03T08:55:39;5.33;;;4.93;;
57551;SDS011;43379;48.160;14.036;2023-04-03T08:58:12;5.50;;;5.00;;
57551;SDS011;43379;48.160;14.036;2023-04-03T09:01:02;6.27;;;5.67;;
57551;SDS011;43379;48.160;14.036;2023-04-03T09:03:34;6.93;;;6.17;;
57551;SDS011;43379;48.160;14.036;2023-04-03T09:06:04;8.40;;;6.40;;
57551;SDS011;43379;48.160;14.036;2023-04-03T09:13:36;5.50;;;4.97;;
57551;SDS011;43379;48.160;14.036;2023-04-03T09:16:25;6.07;;;5.47;;
57551;SDS011;43379;48.160;14.036;2023-04-03T09:19:16;6.23;;;5.30;;
57551;SDS011;43379;48.160;14.036;2023-04-03T09:21:57;6.90;;;5.40;;
57551;SDS011;43379;48.160;14.036;2023-04-03T09:24:27;4.73;;;4.33;;
57551;SDS011;43379;48.160;14.036;2023-04-03T09:29:30;5.50;;;4.30;;
57551;SDS011;43379;48.160;14.036;2023-04-03T09:31:59;8.40;;;4.90;;
57551;SDS011;43379;48.160;14.036;2023-04-03T09:34:27;5.73;;;5.20;;
57551;SDS011;43379;48.160;14.036;2023-04-03T09:37:02;5.43;;;5.03;;
57551;SDS011;43379;48.160;14.036;2023-04-03T09:39:48;5.83;;;5.20;;
57551;SDS011;43379;48.160;14.036;2023-04-03T09:42:23;6.13;;;3.73;;
57551;SDS011;43379;48.160;14.036;2023-04-03T09:44:54;4.13;;;3.83;;
57551;SDS011;43379;48.160;14.036;2023-04-03T09:47:24;3.60;;;3.23;;
57551;SDS011;43379;48.160;14.036;2023-04-03T09:50:08;3.77;;;3.47;;
57551;SDS011;43379;48.160;14.036;2023-04-03T09:52:35;3.90;;;3.27;;
57551;SDS011;43379;48.160;14.036;2023-04-03T09:55:07;4.37;;;3.87;;
57551;SDS011;43379;48.160;14.036;2023-04-03T09:57:38;3.57;;;2.80;;
57551;SDS011;43379;48.160;14.036;2023-04-03T10:00:04;3.03;;;2.73;;
57551;SDS011;43379;48.160;14.036;2023-04-03T10:02:40;3.93;;;2.97;;
57551;SDS011;43379;48.160;14.036;2023-04-03T10:10:44;3.47;;;3.10;;
57551;SDS011;43379;48.160;14.036;2023-04-03T10:15:48;4.53;;;3.17;;
57551;SDS011;43379;48.160;14.036;2023-04-03T10:21:08;2.87;;;2.53;;
57551;SDS011;43379;48.160;14.036;2023-04-03T10:32:27;4.70;;;3.20;;
57551;SDS011;43379;48.160;14.036;2023-04-03T10:38:19;3.20;;;3.00;;
57551;SDS011;43379;48.160;14.036;2023-04-03T10:43:33;3.23;;;2.93;;
57551;SDS011;43379;48.160;14.036;2023-04-03T10:51:28;2.67;;;2.47;;
57551;SDS011;43379;48.160;14.036;2023-04-03T10:54:59;4.27;;;2.93;;
57551;SDS011;43379;48.160;14.036;2023-04-03T10:57:10;4.10;;;2.90;;
57551;SDS011;43379;48.160;14.036;2023-04-03T10:59:38;3.17;;;2.87;;
57551;SDS011;43379;48.160;14.036;2023-04-03T11:02:14;3.10;;;2.80;;
57551;SDS011;43379;48.160;14.036;2023-04-03T11:07:52;3.10;;;2.40;;
57551;SDS011;43379;48.160;14.036;2023-04-03T11:13:13;4.10;;;2.90;;
57551;SDS011;43379;48.160;14.036;2023-04-03T11:15:43;3.23;;;2.60;;
57551;SDS011;43379;48.160;14.036;2023-04-03T11:18:35;2.50;;;2.30;;
57551;SDS011;43379;48.160;14.036;2023-04-03T11:21:03;3.90;;;2.43;;
57551;SDS011;43379;48.160;14.036;2023-04-03T11:23:35;4.63;;;3.40;;
57551;SDS011;43379;48.160;14.036;2023-04-03T11:26:09;3.10;;;2.50;;
57551;SDS011;43379;48.160;14.036;2023-04-03T11:28:40;3.10;;;2.30;;
57551;SDS011;43379;48.160;14.036;2023-04-03T11:36:54;2.93;;;2.73;;
57551;SDS011;43379;48.160;14.036;2023-04-03T11:39:26;3.77;;;3.33;;
57551;SDS011;43379;48.160;14.036;2023-04-03T11:42:12;3.20;;;2.60;;
57551;SDS011;43379;48.160;14.036;2023-04-03T11:44:50;3.60;;;2.20;;
57551;SDS011;43379;48.160;14.036;2023-04-03T12:13:39;3.60;;;3.20;;
57551;SDS011;43379;48.160;14.036;2023-04-03T12:16:22;3.40;;;3.13;;
57551;SDS011;43379;48.160;14.036;2023-04-03T12:19:00;4.67;;;3.40;;
57551;SDS011;43379;48.160;14.036;2023-04-03T12:34:38;3.80;;;3.40;;
57551;SDS011;43379;48.160;14.036;2023-04-03T12:42:34;4.33;;;4.03;;
57551;SDS011;43379;48.160;14.036;2023-04-03T12:45:14;3.53;;;3.23;;
57551;SDS011;43379;48.160;14.036;2023-04-03T12:47:45;4.93;;;3.70;;
57551;SDS011;43379;48.160;14.036;2023-04-03T12:50:24;3.30;;;3.03;;
57551;SDS011;43379;48.160;14.036;2023-04-03T12:55:31;3.90;;;3.50;;
57551;SDS011;43379;48.160;14.036;2023-04-03T12:57:57;3.57;;;3.27;;
57551;SDS011;43379;48.160;14.036;2023-04-03T13:00:37;3.47;;;3.10;;
57551;SDS011;43379;48.160;14.036;2023-04-03T13:03:04;5.83;;;3.00;;
57551;SDS011;43379;48.160;14.036;2023-04-03T13:05:40;3.40;;;3.20;;
57551;SDS011;43379;48.160;14.036;2023-04-03T13:08:11;8.10;;;3.53;;
57551;SDS011;43379;48.160;14.036;2023-04-03T13:10:49;4.27;;;3.30;;
57551;SDS011;43379;48.160;14.036;2023-04-03T13:13:24;2.87;;;2.67;;
57551;SDS011;43379;48.160;14.036;2023-04-03T13:15:51;3.43;;;3.13;;
57551;SDS011;43379;48.160;14.036;2023-04-03T13:18:21;3.47;;;3.17;;
57551;SDS011;43379;48.160;14.036;2023-04-03T13:20:48;3.90;;;3.60;;
57551;SDS011;43379;48.160;14.036;2023-04-03T13:23:15;5.10;;;3.60;;
57551;SDS011;43379;48.160;14.036;2023-04-03T13:25:45;3.77;;;3.50;;
57551;SDS011;43379;48.160;14.036;2023-04-03T13:28:14;3.20;;;2.90;;
57551;SDS011;43379;48.160;14.036;2023-04-03T13:31:08;3.73;;;3.10;;
57551;SDS011;43379;48.160;14.036;2023-04-03T13:33:39;3.40;;;2.90;;
57551;SDS011;43379;48.160;14.036;2023-04-03T13:36:18;3.70;;;2.57;;
57551;SDS011;43379;48.160;14.036;2023-04-03T13:38:46;3.10;;;2.80;;
57551;SDS011;43379;48.160;14.036;2023-04-03T13:41:33;3.87;;;3.47;;
57551;SDS011;43379;48.160;14.036;2023-04-03T13:44:34;6.60;;;2.90;;
57551;SDS011;43379;48.160;14.036;2023-04-03T13:49:40;3.90;;;3.13;;
57551;SDS011;43379;48.160;14.036;2023-04-03T13:54:55;3.77;;;3.20;;
57551;SDS011;43379;48.160;14.036;2023-04-03T13:57:23;3.60;;;3.30;;
57551;SDS011;43379;48.160;14.036;2023-04-03T13:59:49;4.13;;;3.10;;
57551;SDS011;43379;48.160;14.036;2023-04-03T14:07:13;3.33;;;2.93;;
57551;SDS011;43379;48.160;14.036;2023-04-03T14:09:41;2.80;;;2.60;;
57551;SDS011;43379;48.160;14.036;2023-04-03T14:12:08;3.33;;;3.03;;
57551;SDS011;43379;48.160;14.036;2023-04-03T14:14:40;3.30;;;3.00;;
57551;SDS011;43379;48.160;14.036;2023-04-03T14:17:17;3.80;;;3.00;;
57551;SDS011;43379;48.160;14.036;2023-04-03T14:19:48;2.80;;;2.60;;
57551;SDS011;43379;48.160;14.036;2023-04-03T14:22:20;2.73;;;2.53;;
57551;SDS011;43379;48.160;14.036;2023-04-03T14:24:53;3.47;;;3.17;;
57551;SDS011;43379;48.160;14.036;2023-04-03T14:27:24;5.20;;;3.20;;
57551;SDS011;43379;48.160;14.036;2023-04-03T14:29:59;4.60;;;3.43;;
57551;SDS011;43379;48.160;14.036;2023-04-03T14:32:25;3.60;;;3.30;;
57551;SDS011;43379;48.160;14.036;2023-04-03T14:34:52;2.93;;;2.70;;
57551;SDS011;43379;48.160;14.036;2023-04-03T14:37:20;3.40;;;3.10;;
57551;SDS011;43379;48.160;14.036;2023-04-03T14:39:50;3.70;;;3.40;;
57551;SDS011;43379;48.160;14.036;2023-04-03T14:42:19;4.57;;;3.40;;
57551;SDS011;43379;48.160;14.036;2023-04-03T14:44:47;3.53;;;3.23;;
57551;SDS011;43379;48.160;14.036;2023-04-03T14:47:14;4.13;;;3.77;;
57551;SDS011;43379;48.160;14.036;2023-04-03T14:49:51;4.60;;;3.60;;
57551;SDS011;43379;48.160;14.036;2023-04-03T14:54:48;4.13;;;3.80;;
57551;SDS011;43379;48.160;14.036;2023-04-03T14:57:15;3.93;;;3.50;;
57551;SDS011;43379;48.160;14.036;2023-04-03T14:59:41;4.17;;;3.20;;
57551;SDS011;43379;48.160;14.036;2023-04-03T15:05:06;4.93;;;3.17;;
57551;SDS011;43379;48.160;14.036;2023-04-03T15:07:39;4.30;;;3.73;;
57551;SDS011;43379;48.160;14.036;2023-04-03T15:12:48;3.63;;;3.43;;
57551;SDS011;43379;48.160;14.036;2023-04-03T15:15:15;4.40;;;3.20;;
57551;SDS011;43379;48.160;14.036;2023-04-03T15:17:42;3.80;;;3.43;;
57551;SDS011;43379;48.160;14.036;2023-04-03T15:20:16;4.20;;;3.90;;
57551;SDS011;43379;48.160;14.036;2023-04-03T15:22:43;4.33;;;3.70;;
57551;SDS011;43379;48.160;14.036;2023-04-03T15:25:09;4.37;;;3.97;;
57551;SDS011;43379;48.160;14.036;2023-04-03T15:27:36;3.97;;;3.67;;
57551;SDS011;43379;48.160;14.036;2023-04-03T15:30:03;4.17;;;3.87;;
57551;SDS011;43379;48.160;14.036;2023-04-03T15:32:30;3.70;;;3.40;;
57551;SDS011;43379;48.160;14.036;2023-04-03T15:34:56;5.20;;;3.60;;
57551;SDS011;43379;48.160;14.036;2023-04-03T15:37:21;4.10;;;3.70;;
57551;SDS011;43379;48.160;14.036;2023-04-03T15:39:47;3.00;;;2.80;;
57551;SDS011;43379;48.160;14.036;2023-04-03T15:42:13;3.90;;;3.50;;
57551;SDS011;43379;48.160;14.036;2023-04-03T15:44:38;3.83;;;3.47;;
57551;SDS011;43379;48.160;14.036;2023-04-03T15:47:04;3.53;;;3.23;;
57551;SDS011;43379;48.160;14.036;2023-04-03T15:49:31;4.17;;;3.73;;
57551;SDS011;43379;48.160;14.036;2023-04-03T15:51:59;3.80;;;3.40;;
57551;SDS011;43379;48.160;14.036;2023-04-03T15:54:25;4.03;;;3.73;;
57551;SDS011;43379;48.160;14.036;2023-04-03T15:56:51;5.73;;;3.70;;
57551;SDS011;43379;48.160;14.036;2023-04-03T15:59:17;4.20;;;3.67;;
57551;SDS011;43379;48.160;14.036;2023-04-03T16:01:43;4.47;;;4.07;;
57551;SDS011;43379;48.160;14.036;2023-04-03T16:04:09;3.60;;;3.30;;
57551;SDS011;43379;48.160;14.036;2023-04-03T16:06:35;5.07;;;4.37;;
57551;SDS011;43379;48.160;14.036;2023-04-03T16:09:03;3.90;;;3.53;;
57551;SDS011;43379;48.160;14.036;2023-04-03T16:11:29;4.10;;;3.70;;
57551;SDS011;43379;48.160;14.036;2023-04-03T16:13:55;3.53;;;3.30;;
57551;SDS011;43379;48.160;14.036;2023-04-03T16:16:22;6.00;;;3.80;;
57551;SDS011;43379;48.160;14.036;2023-04-03T16:18:49;4.03;;;3.73;;
57551;SDS011;43379;48.160;14.036;2023-04-03T16:21:15;5.37;;;3.60;;
57551;SDS011;43379;48.160;14.036;2023-04-03T16:23:42;5.53;;;3.83;;
57551;SDS011;43379;48.160;14.036;2023-04-03T16:26:08;4.53;;;4.13;;
57551;SDS011;43379;48.160;14.036;2023-04-03T16:28:34;4.53;;;3.80;;
57551;SDS011;43379;48.160;14.036;2023-04-03T16:31:00;4.30;;;4.00;;
57551;SDS011;43379;48.160;14.036;2023-04-03T16:33:27;4.50;;;4.10;;
57551;SDS011;43379;48.160;14.036;2023-04-03T16:35:54;5.20;;;4.73;;
57551;SDS011;43379;48.160;14.036;2023-04-03T16:38:20;3.83;;;3.37;;
57551;SDS011;43379;48.160;14.036;2023-04-03T16:40:47;4.73;;;4.33;;
57551;SDS011;43379;48.160;14.036;2023-04-03T16:43:13;4.90;;;4.20;;
57551;SDS011;43379;48.160;14.036;2023-04-03T16:45:40;5.87;;;5.27;;
57551;SDS011;43379;48.160;14.036;2023-04-03T16:48:05;6.43;;;5.87;;
57551;SDS011;43379;48.160;14.036;2023-04-03T16:50:31;6.00;;;5.50;;